sensor_id;sensor_type;location;lat;lon;timestamp;temperature;humidity
33707;DHT22;20583;50.960;5.332;2023-10-09T18:23:38;22.20;96.80
33707;DHT22;20583;50.960;5.332;2023-10-09T18:26:11;22.30;94.70
33707;DHT22;20583;50.960;5.332;2023-10-09T18:28:43;22.20;95.70
33707;DHT22;20583;50.960;5.332;2023-10-09T18:31:13;22.30;94.30
33707;DHT22;20583;50.960;5.332;2023-10-09T18:33:44;22.20;94.30
33707;DHT22;20583;50.960;5.332;2023-10-09T18:36:10;22.40;94.10
33707;DHT22;20583;50.960;5.332;2023-10-09T18:38:36;22.40;93.80
33707;DHT22;20583;50.960;5.332;2023-10-09T18:41:08;22.50;93.80
33707;DHT22;20583;50.960;5.332;2023-10-09T18:43:36;22.70;93.30
33707;DHT22;20583;50.960;5.332;2023-10-09T18:46:05;22.80;93.00
33707;DHT22;20583;50.960;5.332;2023-10-09T18:48:32;22.80;92.80
33707;DHT22;20583;50.960;5.332;2023-10-09T18:50:58;22.70;92.70
33707;DHT22;20583;50.960;5.332;2023-10-09T18:53:25;22.80;92.50
33707;DHT22;20583;50.960;5.332;2023-10-09T18:55:51;22.70;92.60
33707;DHT22;20583;50.960;5.332;2023-10-09T18:58:17;22.70;92.50
33707;DHT22;20583;50.960;5.332;2023-10-09T19:00:44;22.80;92.30
33707;DHT22;20583;50.960;5.332;2023-10-09T19:03:17;22.90;92.40
33707;DHT22;20583;50.960;5.332;2023-10-09T19:05:44;22.90;92.00
33707;DHT22;20583;50.960;5.332;2023-10-09T19:08:10;22.90;92.00
33707;DHT22;20583;50.960;5.332;2023-10-09T19:10:38;23.00;91.80
33707;DHT22;20583;50.960;5.332;2023-10-09T19:13:04;23.00;92.40
33707;DHT22;20583;50.960;5.332;2023-10-09T19:15:39;23.00;91.80
33707;DHT22;20583;50.960;5.332;2023-10-09T19:18:08;23.00;92.20
33707;DHT22;20583;50.960;5.332;2023-10-09T19:20:40;23.00;91.80
33707;DHT22;20583;50.960;5.332;2023-10-09T19:23:06;23.00;92.00
33707;DHT22;20583;50.960;5.332;2023-10-09T19:25:35;22.90;91.50
33707;DHT22;20583;50.960;5.332;2023-10-09T19:28:02;23.00;91.50
33707;DHT22;20583;50.960;5.332;2023-10-09T19:30:30;23.00;91.30
33707;DHT22;20583;50.960;5.332;2023-10-09T19:32:56;23.00;91.80
33707;DHT22;20583;50.960;5.332;2023-10-09T19:35:23;23.00;91.30
33707;DHT22;20583;50.960;5.332;2023-10-09T19:37:50;23.00;91.30
33707;DHT22;20583;50.960;5.332;2023-10-09T19:40:17;23.00;91.40
33707;DHT22;20583;50.960;5.332;2023-10-09T19:42:43;23.00;91.10
33707;DHT22;20583;50.960;5.332;2023-10-09T19:45:10;23.00;91.20
33707;DHT22;20583;50.960;5.332;2023-10-09T19:47:37;22.90;91.30
33707;DHT22;20583;50.960;5.332;2023-10-09T19:50:07;22.90;91.20
33707;DHT22;20583;50.960;5.332;2023-10-09T19:52:32;22.90;91.70
33707;DHT22;20583;50.960;5.332;2023-10-09T19:54:59;22.90;91.50
33707;DHT22;20583;50.960;5.332;2023-10-09T19:57:25;22.90;91.60
33707;DHT22;20583;50.960;5.332;2023-10-09T19:59:51;22.90;91.20
33707;DHT22;20583;50.960;5.332;2023-10-09T20:02:21;22.90;91.70
33707;DHT22;20583;50.960;5.332;2023-10-09T20:04:47;22.80;91.80
33707;DHT22;20583;50.960;5.332;2023-10-09T20:07:16;22.80;91.70
33707;DHT22;20583;50.960;5.332;2023-10-09T20:09:43;22.80;91.70
33707;DHT22;20583;50.960;5.332;2023-10-09T20:12:08;22.90;92.10
33707;DHT22;20583;50.960;5.332;2023-10-09T20:14:34;22.80;91.90
33707;DHT22;20583;50.960;5.332;2023-10-09T20:17:00;22.70;92.00
33707;DHT22;20583;50.960;5.332;2023-10-09T20:19:25;22.60;91.90
33707;DHT22;20583;50.960;5.332;2023-10-09T20:21:51;22.70;92.30
33707;DHT22;20583;50.960;5.332;2023-10-09T20:24:20;22.70;92.20
33707;DHT22;20583;50.960;5.332;2023-10-09T20:26:46;22.70;92.50
33707;DHT22;20583;50.960;5.332;2023-10-09T20:29:12;22.70;93.10
33707;DHT22;20583;50.960;5.332;2023-10-09T20:31:39;22.70;92.50
33707;DHT22;20583;50.960;5.332;2023-10-09T20:34:10;22.80;92.30
33707;DHT22;20583;50.960;5.332;2023-10-09T20:36:41;22.80;92.30
33707;DHT22;20583;50.960;5.332;2023-10-09T20:39:12;22.80;92.40
33707;DHT22;20583;50.960;5.332;2023-10-09T20:41:40;22.80;93.10
33707;DHT22;20583;50.960;5.332;2023-10-09T20:44:06;22.80;93.40
33707;DHT22;20583;50.960;5.332;2023-10-09T20:46:35;22.80;93.60
33707;DHT22;20583;50.960;5.332;2023-10-09T20:49:02;22.70;93.70
33707;DHT22;20583;50.960;5.332;2023-10-09T20:51:28;22.80;93.60
33707;DHT22;20583;50.960;5.332;2023-10-09T20:53:54;22.80;93.60
33707;DHT22;20583;50.960;5.332;2023-10-09T20:56:23;22.80;93.80
33707;DHT22;20583;50.960;5.332;2023-10-09T20:58:53;22.80;93.50
